Time;durP1;ratioP1;P1;durP2;ratioP2;P2;SDS_P1;SDS_P2;PMS_P1;PMS_P2;Temp;Humidity;BMP_temperature;BMP_pressure;BME280_temperature;BME280_humidity;BME280_pressure;Samples;Min_cycle;Max_cycle;Signal;HPM_P1;HPM_P2
2022/06/02 00:02:10;;;;;;;4.85;3.10;;;;;;;23.68;53.83;94802.00;5124804;27;20212;-75
2022/06/02 00:04:45;;;;;;;5.28;3.38;;;;;;;23.65;54.08;94798.00;5110630;28;20189;-75
2022/06/02 00:07:19;;;;;;;4.75;3.08;;;;;;;23.64;54.11;94795.59;5110326;28;20211;-75
2022/06/02 00:10:00;;;;;;;3.22;2.92;;;;;;;23.61;54.25;94796.00;5089891;28;20197;-75
2022/06/02 00:12:32;;;;;;;4.70;3.25;;;;;;;23.58;54.31;94792.03;5096842;28;20216;-78
2022/06/02 00:15:13;;;;;;;5.15;3.17;;;;;;;23.56;54.32;94795.88;5130121;27;20199;-75
2022/06/02 00:17:48;;;;;;;5.22;3.22;;;;;;;23.49;54.04;94793.34;5135172;27;20192;-75
2022/06/02 00:20:17;;;;;;;8.45;3.90;;;;;;;23.51;54.32;94799.13;5134778;27;20219;-76
2022/06/02 00:22:54;;;;;;;5.70;3.42;;;;;;;23.47;54.55;94798.75;5128515;27;20184;-78
2022/06/02 00:25:28;;;;;;;6.38;3.58;;;;;;;23.45;54.67;94794.78;5113231;27;20199;-76
2022/06/02 00:28:03;;;;;;;4.53;3.20;;;;;;;23.38;54.86;94788.81;5114361;28;20712;-75
2022/06/02 00:30:38;;;;;;;4.65;3.00;;;;;;;23.41;54.95;94801.44;5114188;28;20200;-75
2022/06/02 00:33:21;;;;;;;4.78;3.08;;;;;;;23.38;54.88;94807.88;5125889;27;20556;-76
2022/06/02 00:35:53;;;;;;;7.90;3.30;;;;;;;23.36;55.11;94796.84;5135181;27;20271;-74
2022/06/02 00:38:25;;;;;;;7.47;3.58;;;;;;;23.33;55.07;94794.66;5134031;27;20192;-74
2022/06/02 00:40:52;;;;;;;5.22;3.65;;;;;;;23.32;55.11;94800.13;5134657;27;20232;-76
2022/06/02 00:43:48;;;;;;;4.50;3.10;;;;;;;23.28;55.20;94795.31;5134487;27;20664;-75
2022/06/02 00:46:26;;;;;;;4.85;3.25;;;;;;;23.27;55.42;94798.13;5134587;27;20181;-76
2022/06/02 00:49:01;;;;;;;6.93;3.35;;;;;;;23.25;55.74;94802.75;5134359;27;20219;-78
2022/06/02 00:51:45;;;;;;;8.90;3.35;;;;;;;23.20;55.66;94795.56;5132265;27;20617;-76
2022/06/02 00:57:32;;;;;;;4.60;3.60;;;;;;;23.15;55.74;94789.41;5134430;27;20176;-74
2022/06/02 01:00:12;;;;;;;5.05;3.13;;;;;;;23.14;55.76;94791.19;5134058;27;20215;-75
2022/06/02 01:02:48;;;;;;;3.97;3.53;;;;;;;23.13;55.84;94796.63;5134432;27;20219;-76
2022/06/02 01:05:21;;;;;;;4.60;3.22;;;;;;;23.10;55.96;94797.88;5134089;27;20289;-74
2022/06/02 01:08:01;;;;;;;8.13;3.70;;;;;;;23.09;55.86;94798.06;5119263;27;20200;-74
2022/06/02 01:10:54;;;;;;;3.65;3.28;;;;;;;23.02;55.92;94791.09;5113421;28;20589;-74
2022/06/02 01:13:33;;;;;;;5.18;3.35;;;;;;;23.03;56.10;94791.91;5092735;28;20587;-73
2022/06/02 01:16:11;;;;;;;4.30;3.50;;;;;;;23.01;56.07;94797.34;5092116;28;20650;-74
2022/06/02 01:18:55;;;;;;;8.05;3.60;;;;;;;22.98;56.30;94800.38;5091837;28;20193;-76
2022/06/02 01:21:55;;;;;;;3.13;2.78;;;;;;;22.96;56.09;94799.75;5103064;27;20191;-75
2022/06/02 01:24:38;;;;;;;5.93;3.42;;;;;;;22.90;56.08;94790.19;5133993;27;20195;-75
2022/06/02 01:27:28;;;;;;;5.22;2.80;;;;;;;22.90;56.15;94787.56;5132030;27;20196;-75
2022/06/02 01:30:22;;;;;;;4.22;2.67;;;;;;;22.88;56.41;94794.78;5133797;27;20191;-78
2022/06/02 01:33:02;;;;;;;4.97;3.00;;;;;;;22.86;56.19;94793.41;5114000;27;20284;-74
2022/06/02 01:35:39;;;;;;;5.63;3.30;;;;;;;22.84;56.40;94804.06;5113162;28;20180;-75
2022/06/02 01:38:14;;;;;;;4.45;3.55;;;;;;;22.82;56.31;94802.66;5092748;28;20192;-75
2022/06/02 01:40:53;;;;;;;4.72;3.30;;;;;;;22.78;56.43;94799.66;5092736;28;20274;-75
2022/06/02 01:43:28;;;;;;;5.32;2.90;;;;;;;22.71;56.43;94794.50;5092945;28;20186;-75
2022/06/02 01:46:27;;;;;;;4.03;3.58;;;;;;;22.73;56.33;94799.50;5092450;28;20189;-75
2022/06/02 01:49:06;;;;;;;6.15;3.13;;;;;;;22.71;56.51;94793.69;5069339;28;20238;-75
2022/06/02 01:51:53;;;;;;;3.42;3.10;;;;;;;22.69;56.43;94798.31;5069714;28;20685;-74
2022/06/02 01:54:32;;;;;;;3.17;2.88;;;;;;;22.66;56.54;94801.34;5069848;28;20182;-74
2022/06/02 01:57:18;;;;;;;4.70;3.00;;;;;;;22.63;56.50;94793.97;5069507;28;20269;-75
2022/06/02 01:59:56;;;;;;;8.40;3.05;;;;;;;22.61;56.50;94788.13;5069794;28;20629;-77
2022/06/02 02:02:32;;;;;;;4.93;3.03;;;;;;;22.59;56.44;94788.34;5069447;28;20194;-74
2022/06/02 02:05:16;;;;;;;4.82;2.70;;;;;;;22.58;56.56;94796.38;5068886;28;20189;-76
2022/06/02 02:07:54;;;;;;;5.78;3.67;;;;;;;22.38;56.78;94765.22;5049659;28;20579;-77
2022/06/02 02:10:33;;;;;;;6.63;3.20;;;;;;;22.52;56.74;94788.38;5054483;28;20193;-73
2022/06/02 02:13:13;;;;;;;5.45;3.33;;;;;;;22.50;56.80;94793.03;5069500;28;20186;-75
2022/06/02 02:15:48;;;;;;;3.78;3.35;;;;;;;22.47;56.96;94788.22;5069178;28;20211;-73
2022/06/02 02:18:26;;;;;;;3.53;2.97;;;;;;;22.46;57.06;94785.81;5069083;28;20201;-74
2022/06/02 02:21:14;;;;;;;3.35;2.97;;;;;;;22.44;57.01;94786.00;5068693;28;20225;-76
2022/06/02 02:23:53;;;;;;;4.22;3.03;;;;;;;22.36;57.16;94778.44;5071895;28;20671;-76
2022/06/02 02:26:26;;;;;;;4.50;2.83;;;;;;;22.38;57.15;94789.47;5091990;28;20196;-74
2022/06/02 02:29:01;;;;;;;4.68;3.25;;;;;;;22.37;57.19;94787.88;5091395;28;20666;-73
2022/06/02 02:31:40;;;;;;;6.53;2.85;;;;;;;22.33;57.46;94780.69;5127330;27;20644;-76
2022/06/02 02:34:16;;;;;;;4.03;2.85;;;;;;;22.32;57.37;94784.28;5132088;27;20184;-74
2022/06/02 02:36:55;;;;;;;4.03;2.97;;;;;;;22.31;57.49;94786.09;5112554;27;20663;-76
2022/06/02 02:39:32;;;;;;;5.60;3.40;;;;;;;22.30;57.60;94794.91;5111240;28;20259;-76
2022/06/02 02:42:03;;;;;;;3.40;3.08;;;;;;;22.26;57.79;94786.72;5112093;28;20189;-74
2022/06/02 02:44:38;;;;;;;6.60;3.10;;;;;;;22.25;57.75;94785.13;5111810;28;20573;-75
2022/06/02 02:47:11;;;;;;;5.65;2.80;;;;;;;22.25;57.73;94789.53;5111192;27;20188;-74
2022/06/02 02:49:46;;;;;;;4.63;3.28;;;;;;;22.20;57.72;94789.38;5116785;27;20220;-76
2022/06/02 02:52:22;;;;;;;4.10;3.00;;;;;;;22.21;57.77;94789.16;5132101;27;20194;-74
2022/06/02 02:54:56;;;;;;;9.02;3.35;;;;;;;22.17;57.86;94793.16;5132177;27;20625;-74
2022/06/02 02:57:43;;;;;;;3.40;3.10;;;;;;;22.20;57.75;94797.97;5132073;27;20184;-74
2022/06/02 03:00:19;;;;;;;8.38;3.83;;;;;;;22.17;58.14;94797.59;5131883;27;21008;-75
2022/06/02 03:02:55;;;;;;;3.95;3.33;;;;;;;22.15;58.16;94799.56;5131947;27;20191;-76
2022/06/02 03:05:27;;;;;;;6.22;4.40;;;;;;;22.16;58.27;94804.59;5131703;27;20219;-75
2022/06/02 03:08:04;;;;;;;4.88;3.17;;;;;;;22.15;58.36;94805.63;5122491;27;20271;-75
2022/06/02 03:10:35;;;;;;;4.65;3.42;;;;;;;22.13;58.22;94799.00;5111313;28;20284;-76
2022/06/02 03:13:17;;;;;;;6.00;3.47;;;;;;;22.15;58.44;94810.81;5111151;28;20185;-74
2022/06/02 03:15:49;;;;;;;6.30;3.63;;;;;;;22.17;58.40;94810.59;5111172;28;20211;-79
2022/06/02 03:18:40;;;;;;;6.53;3.50;;;;;;;22.17;58.41;94811.41;5110921;28;20189;-80
2022/06/02 03:21:17;;;;;;;7.90;3.95;;;;;;;22.18;58.90;94820.81;5110868;28;20228;-77
2022/06/02 03:24:29;;;;;;;6.38;3.58;;;;;;;22.20;58.52;94812.81;5111377;28;20192;-80
2022/06/02 03:27:09;;;;;;;4.93;3.58;;;;;;;22.22;58.74;94821.19;5112192;27;20650;-79
2022/06/02 03:29:52;;;;;;;4.95;3.85;;;;;;;22.23;58.87;94814.97;5131565;27;20184;-82
2022/06/02 03:32:33;;;;;;;6.88;3.50;;;;;;;22.24;58.84;94817.41;5131362;27;20188;-80
2022/06/02 03:35:06;;;;;;;5.93;3.85;;;;;;;22.27;59.02;94811.75;5131397;27;20630;-80
2022/06/02 03:37:49;;;;;;;6.70;3.90;;;;;;;22.26;58.96;94810.16;5131382;27;20223;-81
2022/06/02 03:40:30;;;;;;;6.80;4.00;;;;;;;22.32;59.34;94808.53;5131378;27;20204;-81
2022/06/02 03:43:08;;;;;;;13.93;3.60;;;;;;;22.33;59.14;94810.16;5126999;27;20189;-81
2022/06/02 03:45:49;;;;;;;4.18;3.78;;;;;;;22.37;59.27;94815.75;5111503;28;20196;-81
2022/06/02 03:48:37;;;;;;;4.57;3.67;;;;;;;22.41;59.23;94814.28;5125277;27;20192;-80
2022/06/02 03:51:20;;;;;;;5.35;4.07;;;;;;;22.45;59.18;94813.69;5131486;27;20184;-80
2022/06/02 03:54:26;;;;;;;6.30;4.10;;;;;;;22.49;59.27;94806.25;5132687;27;20192;-80
2022/06/02 03:57:05;;;;;;;5.72;3.53;;;;;;;22.52;59.16;94804.03;5069017;28;20244;-80
2022/06/02 04:00:03;;;;;;;4.85;3.88;;;;;;;22.58;59.26;94801.59;5060782;28;20178;-76
2022/06/02 04:02:37;;;;;;;5.00;3.78;;;;;;;22.60;59.40;94789.94;5049036;28;20270;-81
2022/06/02 04:05:18;;;;;;;4.45;3.83;;;;;;;22.65;59.36;94790.13;5049957;28;20182;-79
2022/06/02 04:07:59;;;;;;;3.50;3.15;;;;;;;22.70;59.33;94786.88;5050504;28;20664;-82
2022/06/02 04:10:36;;;;;;;8.00;3.92;;;;;;;22.74;59.39;94788.06;5050639;28;20190;-80
2022/06/02 04:13:38;;;;;;;5.38;3.53;;;;;;;22.79;59.57;94788.22;5050221;28;20337;-79
2022/06/02 04:16:37;;;;;;;4.47;3.75;;;;;;;22.85;59.39;94799.63;5054352;28;20273;-81
2022/06/02 04:22:27;;;;;;;8.25;3.83;;;;;;;22.93;59.33;94792.38;5058164;28;20693;-79
2022/06/02 04:25:09;;;;;;;4.25;3.88;;;;;;;23.00;59.39;94794.94;5051467;28;20191;-78
2022/06/02 04:27:44;;;;;;;6.85;4.35;;;;;;;23.03;59.50;94797.91;5051699;28;20211;-79
2022/06/02 04:30:21;;;;;;;7.78;3.78;;;;;;;23.09;59.33;94806.69;5052420;28;20227;-81
2022/06/02 04:32:58;;;;;;;5.95;3.90;;;;;;;23.14;59.51;94808.66;5062646;28;20212;-80
2022/06/02 04:35:36;;;;;;;4.90;4.38;;;;;;;23.16;59.88;94806.66;5114224;28;20208;-78
2022/06/02 04:38:16;;;;;;;8.48;4.50;;;;;;;23.21;59.86;94810.22;5118876;28;20222;-80
2022/06/02 04:40:54;;;;;;;7.28;4.47;;;;;;;23.26;59.81;94812.97;5139349;27;20212;-76
2022/06/02 04:43:28;;;;;;;5.45;4.38;;;;;;;23.35;59.58;94820.53;5124970;27;20302;-80
2022/06/02 04:46:13;;;;;;;8.50;4.75;;;;;;;23.42;59.22;94823.91;5111389;28;20198;-81
2022/06/02 04:48:46;;;;;;;7.68;4.47;;;;;;;23.48;59.03;94825.66;5116430;28;20320;-80
2022/06/02 04:51:21;;;;;;;9.82;4.80;;;;;;;23.53;58.87;94823.19;5132163;27;20617;-79
2022/06/02 04:54:00;;;;;;;6.72;5.40;;;;;;;23.60;58.75;94823.94;5133687;27;20183;-80
2022/06/02 04:56:33;;;;;;;6.63;4.78;;;;;;;23.67;58.63;94834.38;5126810;27;20192;-79
2022/06/02 04:59:10;;;;;;;7.78;4.80;;;;;;;23.75;58.49;94836.69;5110452;28;20185;-85
2022/06/02 05:01:52;;;;;;;8.70;4.55;;;;;;;23.78;58.60;94828.41;5110726;28;20220;-83
2022/06/02 05:04:36;;;;;;;5.72;4.10;;;;;;;23.88;58.47;94830.56;5114627;28;20215;-78
2022/06/02 05:07:13;;;;;;;6.22;4.28;;;;;;;23.99;58.45;94830.59;5113911;28;20204;-79
2022/06/02 05:09:48;;;;;;;8.20;4.10;;;;;;;24.27;59.65;94834.53;5112521;28;20221;-77
2022/06/02 05:12:29;;;;;;;5.45;4.10;;;;;;;24.65;61.06;94829.03;5109401;27;20188;-80
2022/06/02 05:15:10;;;;;;;7.47;3.95;;;;;;;25.12;62.02;94810.09;5112399;28;20199;-79
2022/06/02 05:17:58;;;;;;;4.15;3.30;;;;;;;25.85;62.57;94814.16;5113941;27;20191;-82
2022/06/02 05:20:44;;;;;;;4.80;3.60;;;;;;;26.60;61.70;94811.50;5112253;28;20291;-78
2022/06/02 05:23:35;;;;;;;6.75;3.80;;;;;;;27.51;60.08;94814.06;5111853;28;20195;-79
2022/06/02 05:26:28;;;;;;;8.57;3.50;;;;;;;28.46;58.15;94820.91;5112871;27;20185;-77
2022/06/02 05:29:25;;;;;;;4.60;3.45;;;;;;;29.50;55.69;94821.59;5110459;28;20213;-78
2022/06/02 05:32:31;;;;;;;5.88;3.33;;;;;;;30.51;52.92;94820.59;5112400;28;20196;-78
2022/06/02 05:35:30;;;;;;;5.57;3.55;;;;;;;31.46;50.59;94825.53;5111854;28;20189;-79
2022/06/02 05:38:31;;;;;;;11.70;3.25;;;;;;;32.41;48.91;94822.97;5112099;27;20204;-78
2022/06/02 05:41:06;;;;;;;7.00;3.42;;;;;;;33.14;46.64;94829.47;5112306;28;20288;-78
2022/06/02 05:43:40;;;;;;;6.38;3.22;;;;;;;33.95;45.03;94833.31;5111942;28;20199;-78
2022/06/02 05:46:22;;;;;;;7.07;3.05;;;;;;;34.73;43.77;94837.50;5110032;28;20193;-77
2022/06/02 05:49:04;;;;;;;6.57;3.22;;;;;;;35.53;42.06;94833.94;5111876;28;20220;-78
2022/06/02 05:51:41;;;;;;;5.80;3.10;;;;;;;36.29;40.96;94836.34;5111459;28;20195;-77
2022/06/02 05:54:25;;;;;;;5.63;2.72;;;;;;;36.99;39.50;94840.53;5109132;28;20209;-77
2022/06/02 05:57:06;;;;;;;5.70;3.20;;;;;;;37.72;38.49;94841.22;5111689;28;20580;-78
2022/06/02 06:00:01;;;;;;;4.32;3.17;;;;;;;38.42;37.00;94843.16;5111366;28;20185;-75
2022/06/02 06:02:54;;;;;;;4.40;2.80;;;;;;;39.07;35.75;94836.19;5048340;28;20265;-77
2022/06/02 06:05:29;;;;;;;5.30;2.75;;;;;;;39.64;34.67;94842.16;5048375;28;20222;-77
2022/06/02 06:08:38;;;;;;;10.20;3.38;;;;;;;40.25;33.56;94849.25;5046986;28;20633;-77
2022/06/02 06:11:16;;;;;;;5.80;3.40;;;;;;;40.73;33.26;94846.19;4989344;28;20211;-76
2022/06/02 06:14:05;;;;;;;7.03;3.17;;;;;;;41.22;32.24;94845.69;4988481;28;20203;-76
2022/06/02 06:16:39;;;;;;;4.32;3.20;;;;;;;41.66;31.41;94848.78;4987989;28;20390;-74
2022/06/02 06:19:24;;;;;;;5.13;3.05;;;;;;;42.07;31.24;94848.66;4988942;28;20203;-75
2022/06/02 06:22:03;;;;;;;8.52;3.55;;;;;;;42.49;30.29;94850.34;4989235;28;20640;-77
2022/06/02 06:24:58;;;;;;;8.15;3.42;;;;;;;42.88;29.80;94859.66;4988920;28;20196;-76
2022/06/02 06:27:33;;;;;;;8.60;3.30;;;;;;;43.22;29.29;94850.25;4986903;28;20200;-77
2022/06/02 06:30:09;;;;;;;5.95;2.95;;;;;;;43.55;29.11;94849.28;4989463;28;20645;-74
2022/06/02 06:32:47;;;;;;;5.10;3.40;;;;;;;43.85;28.70;94857.00;4990115;28;20199;-76
2022/06/02 06:35:40;;;;;;;6.97;3.80;;;;;;;44.15;27.98;94855.44;4990033;28;20254;-77
2022/06/02 06:38:27;;;;;;;4.50;2.97;;;;;;;44.43;27.96;94847.25;4988562;28;20248;-74
2022/06/02 06:41:11;;;;;;;8.77;3.33;;;;;;;44.56;27.40;94824.47;5073980;27;20227;-76
2022/06/02 06:43:56;;;;;;;5.47;3.20;;;;;;;44.93;27.46;94843.00;5113598;27;20211;-77
2022/06/02 06:46:26;;;;;;;8.98;3.38;;;;;;;45.13;27.35;94841.13;5111822;27;20665;-76
2022/06/02 06:48:59;;;;;;;4.85;3.30;;;;;;;45.38;26.20;94851.63;5111318;28;20601;-74
2022/06/02 06:51:36;;;;;;;4.90;3.40;;;;;;;45.58;26.69;94847.03;5110570;28;20196;-76
2022/06/02 06:54:11;;;;;;;3.35;2.78;;;;;;;45.77;26.48;94849.69;5114054;27;20199;-76
2022/06/02 06:56:51;;;;;;;7.93;3.20;;;;;;;45.98;26.38;94849.31;5108463;28;20687;-75
2022/06/02 06:59:29;;;;;;;4.85;2.95;;;;;;;46.16;26.03;94850.41;5111721;27;20668;-76
2022/06/02 07:02:04;;;;;;;4.47;2.60;;;;;;;46.35;25.57;94848.78;5108659;28;20212;-77
2022/06/02 07:04:38;;;;;;;5.88;3.30;;;;;;;46.48;25.15;94840.09;5110457;28;20653;-77
2022/06/02 07:07:12;;;;;;;7.75;3.08;;;;;;;46.65;24.92;94849.63;5107889;28;20204;-76
2022/06/02 07:09:52;;;;;;;5.47;2.70;;;;;;;46.78;25.13;94845.56;5111327;27;20191;-77
2022/06/02 07:15:21;;;;;;;6.35;3.15;;;;;;;47.01;25.09;94845.50;5110078;28;20196;-76
2022/06/02 07:17:54;;;;;;;7.32;3.33;;;;;;;47.10;24.74;94837.09;5110408;27;20203;-78
2022/06/02 07:20:26;;;;;;;8.68;3.30;;;;;;;47.23;24.26;94851.94;5110054;28;20188;-76
2022/06/02 07:23:05;;;;;;;6.15;3.13;;;;;;;47.31;24.58;94850.13;5110326;28;20199;-75
2022/06/02 07:25:44;;;;;;;4.32;3.25;;;;;;;47.40;24.48;94853.34;5110505;27;20304;-77
2022/06/02 07:28:22;;;;;;;5.40;3.20;;;;;;;47.48;24.39;94851.50;5110201;27;20195;-76
2022/06/02 07:31:02;;;;;;;3.90;3.28;;;;;;;47.49;23.89;94839.50;5110689;27;20184;-76
2022/06/02 07:33:42;;;;;;;4.63;3.08;;;;;;;47.57;23.91;94843.06;5109918;28;20692;-78
2022/06/02 07:36:54;;;;;;;6.70;3.50;;;;;;;47.61;23.79;94846.59;5110321;28;20645;-77
2022/06/02 07:39:53;;;;;;;4.70;3.10;;;;;;;47.62;23.34;94843.50;5107314;28;20199;-77
2022/06/02 07:43:00;;;;;;;4.15;3.20;;;;;;;47.65;23.32;94850.13;5109559;28;20227;-76
2022/06/02 07:45:32;;;;;;;5.72;3.25;;;;;;;47.66;23.38;94846.25;5109576;28;20914;-76
2022/06/02 07:48:35;;;;;;;4.20;3.22;;;;;;;47.68;23.49;94844.00;5109981;28;20196;-76
2022/06/02 07:51:17;;;;;;;5.90;3.60;;;;;;;47.66;23.47;94847.06;5109801;28;20653;-77
2022/06/02 07:54:00;;;;;;;6.68;3.58;;;;;;;47.63;23.20;94844.28;5109121;28;20184;-76
2022/06/02 07:56:34;;;;;;;8.55;3.47;;;;;;;47.58;23.27;94842.69;5109809;28;20196;-78
2022/06/02 07:59:16;;;;;;;4.10;3.33;;;;;;;47.55;22.93;94848.88;5109663;28;20188;-77
2022/06/02 08:02:10;;;;;;;7.25;3.30;;;;;;;47.53;23.30;94847.66;5110555;28;20295;-77
2022/06/02 08:04:45;;;;;;;6.45;3.30;;;;;;;47.43;22.73;94841.00;5107371;28;20199;-77
2022/06/02 08:07:22;;;;;;;5.95;3.10;;;;;;;47.34;22.77;94844.00;5109181;28;20573;-78
2022/06/02 08:10:03;;;;;;;7.75;3.20;;;;;;;47.30;23.44;94845.88;5109371;28;20387;-78
2022/06/02 08:12:39;;;;;;;7.82;3.20;;;;;;;47.19;23.28;94845.72;5108247;28;20199;-77
2022/06/02 08:15:21;;;;;;;6.15;3.35;;;;;;;47.15;22.90;94850.31;5109405;28;20219;-76
2022/06/02 08:17:58;;;;;;;6.38;3.08;;;;;;;47.04;22.76;94849.41;5109854;28;20196;-78
2022/06/02 08:20:37;;;;;;;5.55;3.30;;;;;;;46.92;22.73;94842.28;5109286;28;20196;-77
2022/06/02 08:23:15;;;;;;;4.10;3.08;;;;;;;46.80;22.85;94847.13;5109814;28;20242;-78
2022/06/02 08:25:58;;;;;;;5.40;3.30;;;;;;;46.68;22.83;94848.09;5113489;28;20188;-78
2022/06/02 08:28:45;;;;;;;4.03;2.90;;;;;;;46.52;22.99;94843.63;5108910;28;20185;-76
2022/06/02 08:31:20;;;;;;;5.03;2.67;;;;;;;46.36;22.79;94834.09;5109754;28;20188;-76
2022/06/02 08:33:54;;;;;;;3.10;2.65;;;;;;;46.25;22.57;94842.06;5106026;28;20201;-76
2022/06/02 08:36:27;;;;;;;3.55;2.58;;;;;;;46.11;23.19;94842.56;5110158;28;20196;-77
2022/06/02 08:39:10;;;;;;;5.07;2.70;;;;;;;45.99;23.25;94843.56;5115794;27;20187;-79
2022/06/02 08:42:17;;;;;;;4.82;2.63;;;;;;;45.82;23.30;94833.22;5113097;27;20703;-75
2022/06/02 08:45:19;;;;;;;7.38;2.83;;;;;;;45.62;23.49;94837.06;5112374;28;20219;-78
2022/06/02 08:48:22;;;;;;;4.05;2.75;;;;;;;45.46;23.14;94839.84;5113068;28;20230;-76
2022/06/02 08:51:08;;;;;;;5.28;2.53;;;;;;;45.25;23.45;94822.06;5114012;27;20191;-76
2022/06/02 08:54:15;;;;;;;4.47;3.35;;;;;;;45.10;23.32;94835.66;5113092;28;20196;-77
2022/06/02 08:57:09;;;;;;;4.20;3.10;;;;;;;44.89;23.59;94841.38;5111879;28;20218;-76
2022/06/02 09:00:09;;;;;;;5.38;2.80;;;;;;;44.70;23.62;94842.91;5110324;28;20192;-77
2022/06/02 09:03:23;;;;;;;4.93;3.00;;;;;;;44.48;24.22;94835.44;5108589;28;20204;-77
2022/06/02 09:06:27;;;;;;;4.43;2.70;;;;;;;44.25;23.81;94837.97;5110478;28;20577;-76
2022/06/02 09:09:27;;;;;;;5.82;2.90;;;;;;;44.02;24.19;94825.09;5110970;27;20184;-79
2022/06/02 09:12:13;;;;;;;6.38;2.60;;;;;;;43.82;23.93;94839.56;5111114;28;20211;-77
2022/06/02 09:15:13;;;;;;;3.42;2.20;;;;;;;43.62;23.61;94835.22;5110388;28;20203;-76
2022/06/02 09:17:47;;;;;;;3.78;2.80;;;;;;;43.41;23.71;94828.09;5108139;28;20300;-78
2022/06/02 09:20:27;;;;;;;3.72;2.88;;;;;;;43.23;23.34;94838.38;5110402;28;20275;-77
2022/06/02 09:23:10;;;;;;;8.65;2.97;;;;;;;43.03;24.03;94831.25;5110158;28;20308;-78
2022/06/02 09:25:55;;;;;;;5.30;2.70;;;;;;;42.81;23.48;94824.47;5109573;27;20203;-79
2022/06/02 09:28:40;;;;;;;5.57;2.50;;;;;;;42.57;23.42;94830.63;5109876;28;20279;-77
2022/06/02 09:31:21;;;;;;;5.03;3.03;;;;;;;42.38;23.60;94833.13;5109976;28;20204;-79
2022/06/02 09:34:07;;;;;;;3.75;2.80;;;;;;;42.19;23.66;94830.94;5107734;27;20614;-78
2022/06/02 09:37:06;;;;;;;3.90;2.78;;;;;;;41.97;24.22;94830.28;5109804;28;20661;-78
2022/06/02 09:40:02;;;;;;;4.90;2.92;;;;;;;41.78;24.48;94827.31;5110521;27;20188;-78
2022/06/02 09:43:01;;;;;;;3.55;2.97;;;;;;;41.56;24.46;94820.44;5107024;28;20212;-77
2022/06/02 09:45:48;;;;;;;6.38;2.92;;;;;;;41.36;24.45;94819.31;5108222;28;20203;-76
2022/06/02 09:48:35;;;;;;;9.02;3.00;;;;;;;41.15;24.74;94807.84;5107344;28;20207;-76
2022/06/02 09:51:31;;;;;;;10.32;3.53;;;;;;;40.98;24.94;94814.13;5111376;28;20185;-75
2022/06/02 09:54:24;;;;;;;4.45;2.90;;;;;;;40.76;25.07;94805.28;5109216;28;20204;-78
2022/06/02 10:00:11;;;;;;;4.53;3.22;;;;;;;40.38;24.92;94805.34;5112292;28;20180;-78
2022/06/02 10:02:52;;;;;;;5.75;3.00;;;;;;;40.20;24.95;94799.31;5111501;27;20225;-78
2022/06/02 10:05:34;;;;;;;6.10;2.70;;;;;;;40.04;25.28;94806.28;5109950;28;20189;-75
2022/06/02 10:08:15;;;;;;;6.10;2.60;;;;;;;39.88;25.46;94792.63;5111777;28;20185;-76
2022/06/02 10:10:55;;;;;;;5.60;3.05;;;;;;;39.72;25.61;94799.59;5111486;28;20612;-75
2022/06/02 10:13:56;;;;;;;5.60;2.90;;;;;;;39.56;25.71;94796.66;5110847;28;20283;-74
2022/06/02 10:17:08;;;;;;;5.32;2.80;;;;;;;39.36;25.51;94800.78;5111237;28;20195;-78
2022/06/02 10:20:07;;;;;;;7.13;2.53;;;;;;;39.21;25.37;94796.72;5112663;27;20223;-83
2022/06/02 10:22:45;;;;;;;8.52;2.95;;;;;;;39.06;25.42;94789.91;5109594;28;20965;-75
2022/06/02 10:25:28;;;;;;;6.88;2.97;;;;;;;38.95;25.51;94798.56;5111681;28;20201;-80
2022/06/02 10:28:25;;;;;;;5.75;3.00;;;;;;;38.76;25.17;94782.81;5110675;28;20200;-77
2022/06/02 10:31:43;;;;;;;7.72;3.03;;;;;;;38.65;25.32;94787.69;5110747;28;20201;-78
2022/06/02 10:34:41;;;;;;;5.90;3.08;;;;;;;38.49;25.26;94786.56;5112009;27;20657;-77
2022/06/02 10:37:34;;;;;;;6.93;2.53;;;;;;;38.33;24.75;94776.31;5108910;28;20192;-77
2022/06/02 10:40:36;;;;;;;3.95;2.47;;;;;;;38.23;25.02;94776.59;5107406;28;20189;-77
2022/06/02 10:43:45;;;;;;;6.32;2.83;;;;;;;38.09;25.01;94768.69;5108037;28;20220;-77
2022/06/02 10:46:38;;;;;;;4.53;2.60;;;;;;;37.98;24.91;94764.72;5047799;28;20198;-75
2022/06/02 10:49:15;;;;;;;8.95;2.78;;;;;;;37.88;24.99;94749.78;5045352;28;20254;-78
2022/06/02 10:52:30;;;;;;;4.82;2.20;;;;;;;37.80;25.01;94766.53;5047280;28;20201;-80
2022/06/02 10:55:28;;;;;;;4.35;2.63;;;;;;;37.67;24.93;94749.50;4988567;28;20197;-77
2022/06/02 10:58:25;;;;;;;4.72;2.97;;;;;;;37.58;25.12;94751.34;4988421;28;20293;-77
2022/06/02 11:01:24;;;;;;;5.93;2.70;;;;;;;37.49;25.15;94758.53;4988091;28;20216;-79
2022/06/02 11:04:26;;;;;;;4.20;2.65;;;;;;;37.38;25.37;94755.28;4987730;28;20323;-79
2022/06/02 11:07:52;;;;;;;3.33;2.20;;;;;;;37.27;25.25;94750.53;4911100;29;20195;-78
2022/06/02 11:10:30;;;;;;;6.53;2.90;;;;;;;37.17;25.34;94746.22;4911554;29;20207;-81
2022/06/02 11:13:29;;;;;;;6.47;2.50;;;;;;;37.04;25.58;94739.06;4911202;29;20669;-79
2022/06/02 11:16:49;;;;;;;4.70;2.50;;;;;;;36.98;25.39;94740.31;4911431;29;20929;-79
2022/06/02 11:19:58;;;;;;;3.58;2.10;;;;;;;36.89;25.68;94741.00;4868486;29;20288;-78
2022/06/02 11:23:12;;;;;;;2.88;2.17;;;;;;;36.81;25.99;94748.94;4845429;29;20322;-78
2022/06/02 11:26:10;;;;;;;6.18;2.50;;;;;;;36.73;25.89;94739.78;4872676;29;20239;-77
2022/06/02 11:29:08;;;;;;;3.13;2.30;;;;;;;36.63;25.95;94727.47;4880554;29;20197;-78
2022/06/02 11:32:00;;;;;;;3.25;1.92;;;;;;;36.63;26.11;94735.47;4854039;29;20681;-76
2022/06/02 11:34:56;;;;;;;5.57;2.53;;;;;;;36.58;26.27;94737.47;4873280;29;20197;-77
2022/06/02 11:37:53;;;;;;;4.75;2.50;;;;;;;36.49;26.47;94739.25;4873529;29;20269;-79
2022/06/02 11:40:52;;;;;;;3.10;2.35;;;;;;;36.43;26.89;94735.88;4871949;29;20216;-79
2022/06/02 11:43:24;;;;;;;2.72;1.98;;;;;;;36.39;26.62;94735.69;4878229;29;20625;-77
2022/06/02 11:46:19;;;;;;;4.25;2.25;;;;;;;36.33;26.93;94726.25;4908347;29;20195;-77
2022/06/02 11:49:17;;;;;;;3.17;2.13;;;;;;;36.29;27.04;94725.25;4909085;29;20231;-78
2022/06/02 11:52:11;;;;;;;3.70;2.20;;;;;;;36.17;27.00;94724.97;4968984;28;20197;-77
2022/06/02 11:55:14;;;;;;;4.20;2.08;;;;;;;36.16;27.22;94726.06;4961220;28;20245;-79
2022/06/02 11:58:01;;;;;;;3.65;2.03;;;;;;;36.06;27.25;94711.09;4895570;29;20279;-77
2022/06/02 12:01:10;;;;;;;4.80;2.70;;;;;;;36.05;27.42;94717.50;4948699;29;20202;-77
2022/06/02 12:03:56;;;;;;;4.00;2.30;;;;;;;36.01;27.84;94715.72;4948312;29;20225;-77
2022/06/02 12:06:54;;;;;;;3.47;2.28;;;;;;;35.97;28.01;94712.91;4948310;29;20241;-76
2022/06/02 12:09:46;;;;;;;2.53;2.33;;;;;;;35.93;27.74;94717.22;4928836;29;20285;-76
2022/06/02 12:12:38;;;;;;;4.90;2.10;;;;;;;35.90;28.03;94707.16;4948969;28;20194;-75
2022/06/02 12:15:43;;;;;;;4.75;2.95;;;;;;;35.89;27.94;94717.00;4948675;29;20194;-76
2022/06/02 12:18:33;;;;;;;7.22;2.75;;;;;;;35.86;28.19;94706.16;4822602;29;20293;-80
2022/06/02 12:21:43;;;;;;;3.55;2.55;;;;;;;35.67;28.28;94683.09;4823573;29;20255;-76
2022/06/02 12:34:08;;;;;;;3.35;2.85;;;;;;;35.46;29.23;94721.00;4730207;29;20225;-76
2022/06/02 12:37:04;;;;;;;5.10;3.22;;;;;;;35.33;29.32;94725.22;4817741;29;20199;-80
2022/06/02 12:39:58;;;;;;;4.70;2.60;;;;;;;35.20;29.70;94718.78;4817689;29;20207;-76
2022/06/02 12:42:53;;;;;;;3.33;2.45;;;;;;;35.08;29.72;94716.59;4817948;29;20326;-76
2022/06/02 12:45:47;;;;;;;2.97;2.50;;;;;;;34.82;30.07;94699.44;4821917;29;20230;-76
2022/06/02 12:48:48;;;;;;;9.10;2.88;;;;;;;34.83;30.08;94716.97;4887595;29;20200;-78
2022/06/02 12:51:54;;;;;;;3.63;2.45;;;;;;;34.71;30.29;94722.72;4891200;29;20632;-78
2022/06/02 12:55:05;;;;;;;8.27;2.72;;;;;;;34.57;30.46;94720.00;4856867;29;20285;-78
2022/06/02 12:58:02;;;;;;;3.83;2.42;;;;;;;34.46;30.30;94715.91;4976460;28;20194;-77
2022/06/02 13:00:55;;;;;;;4.22;2.65;;;;;;;34.37;30.43;94720.25;5045476;28;20187;-77
2022/06/02 13:04:13;;;;;;;5.50;2.65;;;;;;;34.28;30.54;94720.13;5044293;28;20618;-77
2022/06/02 13:07:10;;;;;;;4.75;2.20;;;;;;;34.17;30.58;94726.66;5045949;28;20195;-78
2022/06/02 13:10:02;;;;;;;3.38;2.80;;;;;;;34.07;30.86;94724.09;5043556;28;20368;-76
2022/06/02 13:13:19;;;;;;;6.28;2.85;;;;;;;33.99;31.22;94717.59;5043509;28;20742;-78
2022/06/02 13:16:30;;;;;;;5.13;2.85;;;;;;;33.90;31.16;94717.41;5045150;28;20646;-78
2022/06/02 13:19:25;;;;;;;3.35;2.58;;;;;;;33.82;31.60;94711.94;5045465;28;20210;-77
2022/06/02 13:22:12;;;;;;;6.13;3.10;;;;;;;33.76;31.26;94703.22;5045924;28;20293;-74
2022/06/02 13:25:11;;;;;;;2.92;2.63;;;;;;;33.71;31.84;94708.59;5049443;28;20374;-77